createdAt,value
2022-08-25T00:00:26.846Z,25.56
2022-08-25T00:03:29.491Z,25.44
2022-08-25T00:06:40.264Z,25.44
2022-08-25T00:09:42.321Z,25.44
2022-08-25T00:12:44.394Z,25.56
2022-08-25T00:15:47.105Z,25.38
2022-08-25T00:18:52.883Z,25.44
2022-08-25T00:21:55.468Z,25.31
2022-08-25T00:24:57.536Z,25.31
2022-08-25T00:27:59.684Z,25.44
2022-08-25T00:31:02.903Z,25.38
2022-08-25T00:34:09.559Z,25.31
2022-08-25T00:37:11.936Z,25.44
2022-08-25T00:40:14.268Z,25.38
2022-08-25T00:43:18.691Z,25.25
2022-08-25T00:46:28.188Z,25.25
2022-08-25T00:49:37.209Z,25.25
2022-08-25T00:52:43.591Z,25.31
2022-08-25T00:55:45.670Z,25.31
2022-08-25T00:58:47.824Z,25.31
2022-08-25T01:01:51.262Z,25.13
2022-08-25T01:04:53.374Z,25.31
2022-08-25T01:07:58.590Z,25.19
2022-08-25T01:11:06.733Z,25.19
2022-08-25T01:14:10.707Z,25.13
2022-08-25T01:17:13.292Z,25.19
2022-08-25T01:20:16.983Z,25.06
2022-08-25T01:23:19.237Z,25.19
2022-08-25T01:26:30.280Z,25.25
2022-08-25T01:29:33.298Z,25.13
2022-08-25T01:32:35.586Z,25.19
2022-08-25T01:35:37.831Z,25.19
2022-08-25T01:38:40.003Z,25.19
2022-08-25T01:42:06.680Z,25.19
2022-08-25T01:45:10.288Z,25.13
2022-08-25T01:48:13.239Z,25.13
2022-08-25T01:51:16.618Z,25.06
2022-08-25T01:54:19.233Z,25.19
2022-08-25T01:57:22.318Z,25.06
2022-08-25T02:00:24.811Z,25.13
2022-08-25T02:03:27.492Z,25.13
2022-08-25T02:06:32.356Z,25.06
2022-08-25T02:09:37.343Z,25.06
2022-08-25T02:12:39.675Z,25.13
2022-08-25T02:15:51.748Z,25.06
2022-08-25T02:18:54.597Z,25.06
2022-08-25T02:21:57.484Z,25.06
2022-08-25T02:24:59.829Z,24.94
2022-08-25T02:28:02.049Z,25.06
2022-08-25T02:31:07.275Z,25.00
2022-08-25T02:34:10.636Z,24.94
2022-08-25T02:37:12.832Z,24.94
2022-08-25T02:40:14.943Z,24.94
2022-08-25T02:43:17.020Z,24.88
2022-08-25T02:46:20.802Z,25.00
2022-08-25T02:49:22.868Z,24.94
2022-08-25T02:52:25.250Z,24.94
2022-08-25T02:55:27.652Z,24.94
2022-08-25T02:58:29.762Z,24.94
2022-08-25T03:01:32.685Z,24.94
2022-08-25T03:04:34.941Z,24.81
2022-08-25T03:07:38.441Z,24.81
2022-08-25T03:10:42.247Z,24.81
2022-08-25T03:13:44.742Z,24.81
2022-08-25T03:16:47.087Z,24.81
2022-08-25T03:19:49.259Z,24.88
2022-08-25T03:22:51.759Z,24.88
2022-08-25T03:26:15.736Z,24.75
2022-08-25T03:29:18.359Z,24.81
2022-08-25T03:32:20.461Z,24.81
2022-08-25T03:35:22.764Z,24.81
2022-08-25T03:38:26.025Z,24.75
2022-08-25T03:41:30.312Z,24.69
2022-08-25T03:44:33.026Z,24.81
2022-08-25T03:47:35.207Z,24.69
2022-08-25T03:50:37.783Z,24.81
2022-08-25T03:53:39.885Z,24.75
2022-08-25T03:56:43.107Z,24.75
2022-08-25T03:59:45.146Z,24.75
2022-08-25T04:02:47.379Z,24.75
2022-08-25T04:05:49.511Z,24.69
2022-08-25T04:08:52.722Z,24.63
2022-08-25T04:11:54.825Z,24.69
2022-08-25T04:14:56.960Z,24.63
2022-08-25T04:17:59.210Z,24.69
2022-08-25T04:21:09.153Z,24.63
2022-08-25T04:24:13.072Z,24.63
2022-08-25T04:27:15.515Z,24.56
2022-08-25T04:30:18.293Z,24.63
2022-08-25T04:33:20.386Z,24.63
2022-08-25T04:36:22.972Z,24.63
2022-08-25T04:39:25.004Z,24.56
2022-08-25T04:42:27.275Z,24.56
2022-08-25T04:45:29.405Z,24.56
2022-08-25T04:48:32.699Z,24.00
2022-08-25T04:51:39.975Z,23.00
2022-08-25T04:54:42.846Z,22.75
2022-08-25T04:57:44.898Z,22.69
2022-08-25T05:00:47.111Z,22.56
2022-08-25T05:03:56.248Z,22.50
2022-08-25T05:06:58.465Z,22.31
2022-08-25T05:10:02.579Z,22.44
2022-08-25T05:13:05.710Z,22.44
2022-08-25T05:16:09.882Z,22.38
2022-08-25T05:19:13.943Z,22.25
2022-08-25T05:22:16.087Z,22.38
2022-08-25T05:25:18.336Z,22.38
2022-08-25T05:28:21.087Z,22.25
2022-08-25T05:31:24.721Z,22.38
2022-08-25T05:34:26.804Z,22.25
2022-08-25T05:37:28.850Z,22.31
2022-08-25T05:40:32.371Z,22.25
2022-08-25T05:43:35.435Z,22.31
2022-08-25T05:46:37.571Z,22.38
2022-08-25T05:49:39.620Z,22.44
2022-08-25T05:52:41.817Z,22.50
2022-08-25T05:55:47.310Z,22.50
2022-08-25T05:58:50.300Z,22.56
2022-08-25T06:02:10.900Z,22.69
2022-08-25T06:05:20.231Z,22.69
2022-08-25T06:08:22.274Z,22.88
2022-08-25T06:11:24.364Z,23.00
2022-08-25T06:14:27.484Z,22.94
2022-08-25T06:17:29.781Z,23.13
2022-08-25T06:20:32.387Z,23.06
2022-08-25T06:23:34.455Z,23.25
2022-08-25T06:26:37.634Z,23.25
2022-08-25T06:29:39.707Z,23.19
2022-08-25T06:32:45.657Z,23.81
2022-08-25T06:35:47.764Z,24.06
2022-08-25T06:38:49.892Z,24.19
2022-08-25T06:41:53.864Z,24.31
2022-08-25T06:44:55.943Z,24.38
2022-08-25T06:47:59.332Z,24.38
2022-08-25T06:51:05.247Z,24.50
2022-08-25T06:54:09.740Z,24.63
2022-08-25T06:57:12.019Z,24.63
2022-08-25T07:00:14.681Z,24.69
2022-08-25T07:03:16.844Z,24.75
2022-08-25T07:06:19.768Z,24.81
2022-08-25T07:09:21.946Z,24.88
2022-08-25T07:12:24.602Z,24.94
2022-08-25T07:15:27.737Z,24.94
2022-08-25T07:18:30.450Z,25.00
2022-08-25T07:21:35.609Z,25.06
2022-08-25T07:24:38.069Z,25.13
2022-08-25T07:27:41.166Z,25.19
2022-08-25T07:30:45.049Z,25.25
2022-08-25T07:34:12.369Z,25.31
2022-08-25T07:37:27.574Z,25.38
2022-08-25T07:40:42.820Z,25.44
2022-08-25T07:43:45.443Z,25.50
2022-08-25T07:46:48.333Z,25.50
2022-08-25T07:49:52.476Z,25.56
2022-08-25T07:52:55.686Z,25.56
2022-08-25T07:55:57.790Z,25.63
2022-08-25T07:58:59.840Z,25.69
2022-08-25T08:02:02.052Z,25.75
2022-08-25T08:05:04.648Z,25.75
2022-08-25T08:08:12.415Z,25.81
2022-08-25T08:11:24.307Z,25.88
2022-08-25T08:14:26.911Z,25.88
2022-08-25T08:17:29.058Z,25.94
2022-08-25T08:20:42.817Z,26.00
2022-08-25T08:23:45.879Z,26.06
2022-08-25T08:26:58.659Z,26.06
2022-08-25T08:30:02.385Z,26.13
2022-08-25T08:33:10.020Z,26.13
2022-08-25T08:36:13.960Z,26.19
2022-08-25T08:39:17.392Z,26.25
2022-08-25T08:42:34.212Z,26.25
2022-08-25T08:45:53.930Z,26.25
2022-08-25T08:49:23.082Z,26.31
2022-08-25T08:52:50.198Z,26.31
2022-08-25T08:55:58.243Z,26.38
2022-08-25T08:59:18.983Z,26.38
2022-08-25T09:02:39.181Z,26.44
2022-08-25T09:05:54.222Z,26.44
2022-08-25T09:08:59.129Z,26.50
2022-08-25T09:12:47.543Z,26.56
2022-08-25T09:16:33.812Z,26.50
2022-08-25T09:19:58.404Z,26.50
2022-08-25T09:23:03.334Z,26.56
2022-08-25T09:26:36.077Z,26.56
2022-08-25T09:29:58.905Z,26.50
2022-08-25T09:33:05.399Z,26.50
2022-08-25T09:36:08.793Z,26.50
2022-08-25T09:39:11.956Z,26.50
2022-08-25T09:42:14.055Z,26.56
2022-08-25T09:45:17.146Z,26.56
2022-08-25T09:48:25.795Z,26.63
2022-08-25T09:51:42.626Z,26.56
2022-08-25T09:54:46.870Z,26.44
2022-08-25T09:57:53.013Z,26.44
2022-08-25T10:01:08.288Z,26.56
2022-08-25T10:04:13.115Z,26.56
2022-08-25T10:07:30.635Z,26.63
2022-08-25T10:10:37.783Z,26.56
2022-08-25T10:13:51.472Z,26.44
2022-08-25T10:17:10.984Z,26.44
2022-08-25T10:20:17.088Z,26.38
2022-08-25T10:23:19.524Z,26.44
2022-08-25T10:27:00.936Z,26.38
2022-08-25T10:30:15.868Z,26.31
2022-08-25T10:33:20.987Z,26.44
2022-08-25T10:36:47.045Z,26.38
2022-08-25T10:40:12.371Z,26.44
2022-08-25T10:43:17.213Z,26.38
2022-08-25T10:46:49.066Z,26.44
2022-08-25T10:50:04.884Z,26.63
2022-08-25T10:53:25.422Z,26.50
2022-08-25T10:56:41.478Z,26.50
2022-08-25T11:00:01.643Z,26.56
2022-08-25T11:03:19.067Z,26.44
2022-08-25T11:06:28.329Z,26.44
2022-08-25T11:09:36.471Z,26.56
2022-08-25T11:12:45.766Z,26.69
2022-08-25T11:16:16.598Z,26.63
2022-08-25T11:19:30.805Z,26.56
2022-08-25T11:22:59.931Z,26.63
2022-08-25T11:26:14.744Z,26.50
2022-08-25T11:29:19.653Z,26.63
2022-08-25T11:32:24.811Z,26.69
2022-08-25T11:35:34.008Z,26.69
2022-08-25T11:39:00.384Z,26.63
2022-08-25T11:42:30.788Z,26.56
2022-08-25T11:46:10.714Z,26.63
2022-08-25T11:49:46.066Z,26.63
2022-08-25T11:52:56.698Z,26.69
2022-08-25T11:56:05.717Z,26.63
2022-08-25T11:59:08.092Z,26.69
2022-08-25T12:02:39.691Z,26.88
2022-08-25T12:05:41.787Z,27.00
2022-08-25T12:09:18.049Z,27.06
2022-08-25T12:12:37.901Z,27.13
2022-08-25T12:15:42.948Z,26.94
2022-08-25T12:18:46.528Z,27.19
2022-08-25T12:21:54.752Z,27.44
2022-08-25T12:25:03.114Z,27.50
2022-08-25T12:28:35.221Z,27.19
2022-08-25T12:32:19.778Z,27.63
2022-08-25T12:35:37.520Z,27.63
2022-08-25T12:38:50.911Z,27.50
2022-08-25T12:42:04.158Z,27.69
2022-08-25T12:45:40.499Z,27.63
2022-08-25T12:48:57.300Z,27.69
2022-08-25T12:52:23.068Z,27.75
2022-08-25T12:55:29.879Z,27.31
2022-08-25T12:59:00.377Z,27.38
2022-08-25T13:02:19.055Z,27.50
2022-08-25T13:05:56.180Z,27.63
2022-08-25T13:09:20.521Z,27.81
2022-08-25T13:12:45.760Z,27.44
2022-08-25T13:16:01.826Z,27.75
2022-08-25T13:19:06.850Z,27.56
2022-08-25T13:22:17.988Z,27.63
2022-08-25T13:25:27.138Z,27.69
2022-08-25T13:28:40.725Z,27.88
2022-08-25T13:31:58.247Z,27.50
2022-08-25T13:35:35.111Z,27.94
2022-08-25T13:38:39.148Z,27.75
2022-08-25T13:41:47.501Z,28.00
2022-08-25T13:44:58.029Z,28.00
2022-08-25T13:48:00.612Z,27.88
2022-08-25T13:51:31.215Z,27.81
2022-08-25T13:54:41.935Z,28.19
2022-08-25T13:57:44.871Z,28.63
2022-08-25T14:01:01.347Z,28.38
2022-08-25T14:04:32.178Z,28.44
2022-08-25T14:07:34.784Z,28.19
2022-08-25T14:10:45.099Z,27.94
2022-08-25T14:13:58.691Z,28.00
2022-08-25T14:17:04.943Z,28.50
2022-08-25T14:20:28.707Z,28.63
2022-08-25T14:23:31.409Z,28.75
2022-08-25T14:26:33.693Z,28.50
2022-08-25T14:29:35.899Z,28.69
2022-08-25T14:32:43.974Z,28.25
2022-08-25T14:35:49.036Z,28.50
2022-08-25T14:38:54.525Z,28.63
2022-08-25T14:41:56.879Z,28.63
2022-08-25T14:44:59.478Z,28.69
2022-08-25T14:48:12.723Z,28.56
2022-08-25T14:51:15.973Z,28.44
2022-08-25T14:54:18.737Z,28.50
2022-08-25T14:57:21.565Z,28.38
2022-08-25T15:00:26.098Z,28.38
2022-08-25T15:03:32.530Z,28.81
2022-08-25T15:06:36.784Z,28.44
2022-08-25T15:09:38.953Z,28.69
2022-08-25T15:12:47.937Z,28.50
2022-08-25T15:15:54.088Z,28.56
2022-08-25T15:18:56.739Z,28.44
2022-08-25T15:21:59.339Z,28.69
2022-08-25T15:25:02.001Z,28.63
2022-08-25T15:28:06.529Z,28.75
2022-08-25T15:31:12.634Z,28.44
2022-08-25T15:34:15.552Z,28.50
2022-08-25T15:37:18.223Z,28.63
2022-08-25T15:40:20.502Z,28.50
2022-08-25T15:43:22.584Z,28.56
2022-08-25T15:46:27.122Z,28.94
2022-08-25T15:49:31.243Z,28.63
2022-08-25T15:52:46.070Z,28.63
2022-08-25T15:55:49.512Z,28.50
2022-08-25T15:58:56.295Z,28.44
2022-08-25T16:01:59.260Z,28.44
2022-08-25T16:05:01.830Z,28.50
2022-08-25T16:08:04.454Z,28.50
2022-08-25T16:14:22.216Z,28.38
2022-08-25T16:17:24.314Z,28.50
2022-08-25T16:20:27.337Z,28.50
2022-08-25T16:23:29.378Z,28.56
2022-08-25T16:26:32.217Z,28.50
2022-08-25T16:29:37.825Z,28.69
2022-08-25T16:32:40.420Z,28.63
2022-08-25T16:35:43.989Z,28.44
2022-08-25T16:38:49.114Z,28.50
2022-08-25T16:41:52.939Z,28.56
2022-08-25T16:44:55.522Z,28.63
2022-08-25T16:47:57.572Z,28.75
2022-08-25T16:51:00.829Z,28.63
2022-08-25T16:54:22.245Z,28.56
2022-08-25T16:57:24.896Z,28.38
2022-08-25T17:00:30.884Z,28.44
2022-08-25T17:03:34.526Z,28.19
2022-08-25T17:06:51.547Z,28.13
2022-08-25T17:09:57.835Z,28.00
2022-08-25T17:13:00.027Z,28.06
2022-08-25T17:16:03.130Z,28.00
2022-08-25T17:19:08.164Z,28.06
2022-08-25T17:22:15.737Z,28.00
2022-08-25T17:25:18.317Z,27.94
2022-08-25T17:28:20.419Z,27.94
2022-08-25T17:31:23.908Z,27.94
2022-08-25T17:34:27.230Z,27.88
2022-08-25T17:37:29.909Z,27.88
2022-08-25T17:40:32.494Z,27.81
2022-08-25T17:43:38.084Z,27.81
2022-08-25T17:46:47.062Z,27.81
2022-08-25T17:49:49.959Z,27.81
2022-08-25T17:52:53.140Z,27.81
2022-08-25T17:56:04.719Z,27.75
2022-08-25T17:59:07.632Z,27.81
2022-08-25T18:02:09.982Z,27.75
2022-08-25T18:05:14.664Z,27.69
2022-08-25T18:08:18.729Z,27.69
2022-08-25T18:11:24.416Z,27.69
2022-08-25T18:14:26.507Z,27.63
2022-08-25T18:17:28.696Z,27.56
2022-08-25T18:20:31.376Z,27.56
2022-08-25T18:23:33.444Z,27.50
2022-08-25T18:26:35.675Z,27.50
2022-08-25T18:29:37.904Z,27.50
2022-08-25T18:32:42.965Z,27.44
2022-08-25T18:35:45.986Z,27.44
2022-08-25T18:39:09.166Z,27.44
2022-08-25T18:42:12.110Z,27.44
2022-08-25T18:45:14.244Z,27.44
2022-08-25T18:48:18.060Z,27.38
2022-08-25T18:51:23.247Z,27.38
2022-08-25T18:54:25.508Z,27.31
2022-08-25T18:57:28.911Z,27.31
2022-08-25T19:00:32.624Z,27.25
2022-08-25T19:03:34.856Z,27.25
2022-08-25T19:06:37.503Z,27.25
2022-08-25T19:09:39.719Z,27.19
2022-08-25T19:12:44.085Z,27.19
2022-08-25T19:15:46.901Z,27.19
2022-08-25T19:18:50.090Z,27.19
2022-08-25T19:21:54.459Z,27.19
2022-08-25T19:24:56.616Z,27.19
2022-08-25T19:27:59.766Z,27.19
2022-08-25T19:31:04.182Z,27.13
2022-08-25T19:34:08.739Z,27.13
2022-08-25T19:37:13.366Z,27.06
2022-08-25T19:40:18.247Z,27.06
2022-08-25T19:43:20.766Z,27.06
2022-08-25T19:46:39.468Z,27.06
2022-08-25T19:49:41.735Z,27.00
2022-08-25T19:52:45.829Z,27.00
2022-08-25T19:55:52.011Z,27.00
2022-08-25T19:58:54.476Z,27.00
2022-08-25T20:01:57.601Z,27.00
2022-08-25T20:05:00.432Z,27.06
2022-08-25T20:08:04.308Z,27.06
2022-08-25T20:11:07.095Z,27.06
2022-08-25T20:14:09.720Z,27.06
2022-08-25T20:17:14.390Z,27.06
2022-08-25T20:20:32.366Z,27.00
2022-08-25T20:23:54.963Z,27.00
2022-08-25T20:26:57.057Z,27.00
2022-08-25T20:29:59.793Z,26.94
2022-08-25T20:33:05.719Z,26.94
2022-08-25T20:36:14.086Z,26.94
2022-08-25T20:39:16.372Z,27.00
2022-08-25T20:42:19.253Z,26.94
2022-08-25T20:45:22.841Z,26.94
2022-08-25T20:48:25.028Z,26.94
2022-08-25T20:51:29.462Z,26.88
2022-08-25T20:54:32.787Z,26.94
2022-08-25T20:57:35.166Z,26.88
2022-08-25T21:00:37.350Z,26.88
2022-08-25T21:03:39.564Z,26.88
2022-08-25T21:06:42.420Z,26.75
2022-08-25T21:09:44.539Z,26.38
2022-08-25T21:12:53.312Z,26.31
2022-08-25T21:15:55.526Z,26.25
2022-08-25T21:18:58.623Z,26.13
2022-08-25T21:22:01.363Z,26.13
2022-08-25T21:25:04.188Z,26.13
2022-08-25T21:28:06.416Z,26.06
2022-08-25T21:31:09.859Z,26.00
2022-08-25T21:34:12.759Z,26.00
2022-08-25T21:37:14.807Z,25.81
2022-08-25T21:40:17.080Z,25.81
2022-08-25T21:43:19.183Z,25.81
2022-08-25T21:46:24.794Z,25.75
2022-08-25T21:49:27.120Z,25.81
2022-08-25T21:52:29.220Z,25.75
2022-08-25T21:55:37.064Z,25.69
2022-08-25T21:58:46.309Z,25.75
2022-08-25T22:01:59.192Z,25.63
2022-08-25T22:05:01.279Z,25.69
2022-08-25T22:08:03.658Z,25.69
2022-08-25T22:11:07.499Z,25.63
2022-08-25T22:14:10.476Z,25.63
2022-08-25T22:17:16.816Z,25.56
2022-08-25T22:20:22.948Z,25.50
2022-08-25T22:23:28.400Z,25.50
2022-08-25T22:26:32.688Z,25.50
2022-08-25T22:29:34.811Z,25.50
2022-08-25T22:32:38.005Z,25.44
2022-08-25T22:35:41.385Z,25.38
2022-08-25T22:38:43.800Z,25.44
2022-08-25T22:41:45.914Z,25.50
2022-08-25T22:44:47.987Z,25.19
2022-08-25T22:47:52.110Z,25.31
2022-08-25T22:50:54.843Z,25.31
2022-08-25T22:53:58.979Z,25.31
2022-08-25T22:57:06.336Z,25.31
2022-08-25T23:00:13.119Z,25.13
2022-08-25T23:03:15.353Z,25.19
2022-08-25T23:06:24.847Z,25.19
2022-08-25T23:09:27.300Z,25.13
2022-08-25T23:12:29.952Z,25.06
2022-08-25T23:15:32.782Z,25.06
2022-08-25T23:18:41.806Z,25.06
2022-08-25T23:22:04.434Z,25.00
2022-08-25T23:25:07.069Z,25.06
2022-08-25T23:28:09.355Z,25.06
2022-08-25T23:31:13.266Z,25.06
2022-08-25T23:34:17.298Z,25.00
2022-08-25T23:37:19.692Z,25.06
2022-08-25T23:40:22.060Z,25.06
2022-08-25T23:43:25.561Z,25.06
2022-08-25T23:46:32.104Z,25.00
2022-08-25T23:49:34.245Z,24.88
2022-08-25T23:52:36.738Z,24.81
2022-08-25T23:55:39.038Z,24.75
2022-08-25T23:58:55.055Z,24.81
